sensor_id;sensor_type;location;lat;lon;timestamp;pressure;altitude;pressure_sealevel;temperature;humidity
53960;BME280;39866;48.638;-2.020;2024-02-04T00:01:56;103170.47;;;15.81;100.00
53960;BME280;39866;48.638;-2.020;2024-02-04T00:04:22;103174.00;;;15.83;100.00
53960;BME280;39866;48.638;-2.020;2024-02-04T00:06:48;103176.06;;;15.58;100.00
53960;BME280;39866;48.638;-2.020;2024-02-04T00:09:14;103164.97;;;15.92;100.00
53960;BME280;39866;48.638;-2.020;2024-02-04T00:11:39;103179.22;;;15.96;100.00
53960;BME280;39866;48.638;-2.020;2024-02-04T00:14:04;103176.78;;;15.77;100.00
53960;BME280;39866;48.638;-2.020;2024-02-04T00:16:30;103183.84;;;15.86;100.00
53960;BME280;39866;48.638;-2.020;2024-02-04T00:18:55;103181.16;;;15.86;100.00
53960;BME280;39866;48.638;-2.020;2024-02-04T00:21:20;103171.53;;;15.68;100.00
53960;BME280;39866;48.638;-2.020;2024-02-04T00:23:46;103176.63;;;15.90;100.00
53960;BME280;39866;48.638;-2.020;2024-02-04T00:26:11;103166.75;;;15.92;100.00
53960;BME280;39866;48.638;-2.020;2024-02-04T00:28:36;103170.56;;;15.71;100.00
53960;BME280;39866;48.638;-2.020;2024-02-04T00:31:01;103168.78;;;15.71;100.00
53960;BME280;39866;48.638;-2.020;2024-02-04T00:33:27;103163.41;;;15.71;100.00
53960;BME280;39866;48.638;-2.020;2024-02-04T00:35:52;103165.31;;;15.60;100.00
53960;BME280;39866;48.638;-2.020;2024-02-04T00:38:17;103174.00;;;15.83;100.00
53960;BME280;39866;48.638;-2.020;2024-02-04T00:40:43;103158.75;;;15.89;100.00
53960;BME280;39866;48.638;-2.020;2024-02-04T00:43:08;103162.56;;;15.69;100.00
53960;BME280;39866;48.638;-2.020;2024-02-04T00:45:34;103157.19;;;15.69;100.00
53960;BME280;39866;48.638;-2.020;2024-02-04T00:47:59;103148.34;;;15.55;100.00
53960;BME280;39866;48.638;-2.020;2024-02-04T00:50:24;103137.81;;;15.36;100.00
53960;BME280;39866;48.638;-2.020;2024-02-04T00:52:50;103125.13;;;15.51;100.00
53960;BME280;39866;48.638;-2.020;2024-02-04T00:55:15;103128.63;;;15.57;100.00
53960;BME280;39866;48.638;-2.020;2024-02-04T00:57:40;103124.94;;;15.69;100.00
53960;BME280;39866;48.638;-2.020;2024-02-04T01:00:07;103120.41;;;15.74;100.00
53960;BME280;39866;48.638;-2.020;2024-02-04T01:02:33;103109.78;;;15.65;100.00
53960;BME280;39866;48.638;-2.020;2024-02-04T01:04:59;103109.81;;;15.59;100.00
53960;BME280;39866;48.638;-2.020;2024-02-04T01:07:24;103111.53;;;15.63;100.00
53960;BME280;39866;48.638;-2.020;2024-02-04T01:09:49;103115.16;;;15.62;100.00
53960;BME280;39866;48.638;-2.020;2024-02-04T01:12:15;103104.28;;;15.74;100.00
53960;BME280;39866;48.638;-2.020;2024-02-04T01:14:40;103103.38;;;15.75;100.00
53960;BME280;39866;48.638;-2.020;2024-02-04T01:17:05;103100.66;;;15.78;100.00
53960;BME280;39866;48.638;-2.020;2024-02-04T01:19:31;103098.91;;;15.76;100.00
53960;BME280;39866;48.638;-2.020;2024-02-04T01:21:56;103091.84;;;15.67;100.00
53960;BME280;39866;48.638;-2.020;2024-02-04T01:24:23;103094.44;;;15.76;100.00
53960;BME280;39866;48.638;-2.020;2024-02-04T01:26:49;103098.03;;;15.74;100.00
53960;BME280;39866;48.638;-2.020;2024-02-04T01:29:14;103101.66;;;15.70;100.00
53960;BME280;39866;48.638;-2.020;2024-02-04T01:31:39;103098.78;;;15.83;100.00
53960;BME280;39866;48.638;-2.020;2024-02-04T01:34:04;103099.66;;;15.85;100.00
53960;BME280;39866;48.638;-2.020;2024-02-04T01:36:30;103096.22;;;15.76;100.00
53960;BME280;39866;48.638;-2.020;2024-02-04T01:38:56;103094.44;;;15.76;100.00
53960;BME280;39866;48.638;-2.020;2024-02-04T01:41:21;103082.72;;;15.80;100.00
53960;BME280;39866;48.638;-2.020;2024-02-04T01:43:46;103090.44;;;16.03;100.00
53960;BME280;39866;48.638;-2.020;2024-02-04T01:46:12;103094.19;;;15.92;100.00
53960;BME280;39866;48.638;-2.020;2024-02-04T01:48:37;103089.00;;;15.81;100.00
53960;BME280;39866;48.638;-2.020;2024-02-04T01:51:03;103097.31;;;15.55;100.00
53960;BME280;39866;48.638;-2.020;2024-02-04T01:53:32;103094.69;;;15.50;100.00
53960;BME280;39866;48.638;-2.020;2024-02-04T01:55:59;103102.84;;;15.44;100.00
53960;BME280;39866;48.638;-2.020;2024-02-04T01:58:24;103117.16;;;15.45;100.00
53960;BME280;39866;48.638;-2.020;2024-02-04T02:00:50;103107.03;;;15.70;100.00
53960;BME280;39866;48.638;-2.020;2024-02-04T02:03:16;103103.50;;;15.68;100.00
53960;BME280;39866;48.638;-2.020;2024-02-04T02:05:42;103097.34;;;15.53;100.00
53960;BME280;39866;48.638;-2.020;2024-02-04T02:08:08;103097.22;;;15.64;100.00
53960;BME280;39866;48.638;-2.020;2024-02-04T02:10:34;103092.69;;;15.71;100.00
53960;BME280;39866;48.638;-2.020;2024-02-04T02:13:06;103087.38;;;15.66;100.00
53960;BME280;39866;48.638;-2.020;2024-02-04T02:15:36;103101.72;;;15.64;100.00
53960;BME280;39866;48.638;-2.020;2024-02-04T02:18:10;103106.16;;;15.63;100.00
53960;BME280;39866;48.638;-2.020;2024-02-04T02:21:16;103113.28;;;15.70;100.00
53960;BME280;39866;48.638;-2.020;2024-02-04T02:26:31;103098.22;;;15.57;100.00
53960;BME280;39866;48.638;-2.020;2024-02-04T02:28:57;103101.72;;;15.64;100.00
53960;BME280;39866;48.638;-2.020;2024-02-04T02:31:22;103100.81;;;15.66;100.00
53960;BME280;39866;48.638;-2.020;2024-02-04T02:33:48;103089.19;;;15.64;100.00
53960;BME280;39866;48.638;-2.020;2024-02-04T02:36:17;103095.50;;;15.60;100.00
53960;BME280;39866;48.638;-2.020;2024-02-04T02:41:34;103078.56;;;15.53;100.00
53960;BME280;39866;48.638;-2.020;2024-02-04T02:44:01;103091.78;;;15.73;100.00
53960;BME280;39866;48.638;-2.020;2024-02-04T02:46:28;103086.38;;;15.75;100.00
53960;BME280;39866;48.638;-2.020;2024-02-04T02:48:53;103084.69;;;15.63;100.00
53960;BME280;39866;48.638;-2.020;2024-02-04T02:51:19;103080.22;;;15.62;100.00
53960;BME280;39866;48.638;-2.020;2024-02-04T02:53:44;103087.41;;;15.65;100.00
53960;BME280;39866;48.638;-2.020;2024-02-04T02:56:09;103088.28;;;15.65;100.00
53960;BME280;39866;48.638;-2.020;2024-02-04T02:58:35;103092.69;;;15.71;100.00
53960;BME280;39866;48.638;-2.020;2024-02-04T03:01:00;103082.00;;;15.68;100.00
53960;BME280;39866;48.638;-2.020;2024-02-04T03:03:25;103076.69;;;15.58;100.00
53960;BME280;39866;48.638;-2.020;2024-02-04T03:05:51;103083.81;;;15.64;100.00
53960;BME280;39866;48.638;-2.020;2024-02-04T03:08:16;103078.38;;;15.72;100.00
53960;BME280;39866;48.638;-2.020;2024-02-04T03:10:42;103086.56;;;15.58;100.00
53960;BME280;39866;48.638;-2.020;2024-02-04T03:13:07;103089.31;;;15.52;100.00
53960;BME280;39866;48.638;-2.020;2024-02-04T03:15:33;103091.88;;;15.64;100.00
53960;BME280;39866;48.638;-2.020;2024-02-04T03:17:58;103093.78;;;15.53;100.00
53960;BME280;39866;48.638;-2.020;2024-02-04T03:20:23;103083.94;;;15.53;100.00
53960;BME280;39866;48.638;-2.020;2024-02-04T03:22:49;103082.28;;;15.43;100.00
53960;BME280;39866;48.638;-2.020;2024-02-04T03:25:14;103086.72;;;15.43;100.00
53960;BME280;39866;48.638;-2.020;2024-02-04T03:27:40;103083.75;;;15.72;100.00
53960;BME280;39866;48.638;-2.020;2024-02-04T03:30:06;103092.22;;;15.35;100.00
53960;BME280;39866;48.638;-2.020;2024-02-04T03:32:31;103092.88;;;15.55;100.00
53960;BME280;39866;48.638;-2.020;2024-02-04T03:35:02;103089.19;;;15.63;100.00
53960;BME280;39866;48.638;-2.020;2024-02-04T03:37:28;103101.09;;;15.39;100.00
53960;BME280;39866;48.638;-2.020;2024-02-04T03:39:53;103090.41;;;15.35;100.00
53960;BME280;39866;48.638;-2.020;2024-02-04T03:42:19;103100.13;;;15.47;100.00
53960;BME280;39866;48.638;-2.020;2024-02-04T03:44:46;103092.28;;;15.26;100.00
53960;BME280;39866;48.638;-2.020;2024-02-04T03:47:11;103074.72;;;14.99;100.00
53960;BME280;39866;48.638;-2.020;2024-02-04T03:49:37;103073.47;;;15.29;100.00
53960;BME280;39866;48.638;-2.020;2024-02-04T03:52:02;103060.06;;;15.29;100.00
53960;BME280;39866;48.638;-2.020;2024-02-04T03:54:28;103047.53;;;15.26;100.00
53960;BME280;39866;48.638;-2.020;2024-02-04T03:56:53;103049.44;;;15.18;100.00
53960;BME280;39866;48.638;-2.020;2024-02-04T03:59:18;103054.06;;;15.07;100.00
53960;BME280;39866;48.638;-2.020;2024-02-04T04:01:48;103058.56;;;15.03;100.00
53960;BME280;39866;48.638;-2.020;2024-02-04T04:04:14;103061.13;;;15.13;100.00
53960;BME280;39866;48.638;-2.020;2024-02-04T04:06:40;103054.00;;;15.11;100.00
53960;BME280;39866;48.638;-2.020;2024-02-04T04:09:05;103050.34;;;15.17;100.00
53960;BME280;39866;48.638;-2.020;2024-02-04T04:11:31;103054.00;;;15.11;100.00
53960;BME280;39866;48.638;-2.020;2024-02-04T04:13:56;103053.97;;;15.13;100.00
53960;BME280;39866;48.638;-2.020;2024-02-04T04:16:22;103051.09;;;15.31;100.00
53960;BME280;39866;48.638;-2.020;2024-02-04T04:18:47;103047.66;;;15.19;100.00
53960;BME280;39866;48.638;-2.020;2024-02-04T04:21:13;103041.38;;;15.20;100.00
53960;BME280;39866;48.638;-2.020;2024-02-04T04:23:38;103033.53;;;15.01;100.00
53960;BME280;39866;48.638;-2.020;2024-02-04T04:26:03;103049.78;;;14.88;100.00
53960;BME280;39866;48.638;-2.020;2024-02-04T04:28:29;103053.28;;;14.93;100.00
53960;BME280;39866;48.638;-2.020;2024-02-04T04:30:54;103047.88;;;14.99;100.00
53960;BME280;39866;48.638;-2.020;2024-02-04T04:33:20;103055.03;;;14.98;100.00
53960;BME280;39866;48.638;-2.020;2024-02-04T04:35:45;103066.72;;;14.91;100.00
53960;BME280;39866;48.638;-2.020;2024-02-04T04:38:10;103067.66;;;14.90;100.00
53960;BME280;39866;48.638;-2.020;2024-02-04T04:40:36;103059.50;;;14.96;100.00
53960;BME280;39866;48.638;-2.020;2024-02-04T04:43:01;103062.53;;;14.63;100.00
53960;BME280;39866;48.638;-2.020;2024-02-04T04:45:26;103064.97;;;14.87;100.00
53960;BME280;39866;48.638;-2.020;2024-02-04T04:47:52;103079.38;;;14.77;100.00
53960;BME280;39866;48.638;-2.020;2024-02-04T04:50:17;103061.38;;;14.91;100.00
53960;BME280;39866;48.638;-2.020;2024-02-04T04:52:42;103072.25;;;14.73;100.00
53960;BME280;39866;48.638;-2.020;2024-02-04T04:55:08;103065.06;;;14.79;100.00
53960;BME280;39866;48.638;-2.020;2024-02-04T04:57:33;103069.44;;;14.85;100.00
53960;BME280;39866;48.638;-2.020;2024-02-04T04:59:59;103061.38;;;14.91;100.00
53960;BME280;39866;48.638;-2.020;2024-02-04T05:02:29;103073.88;;;14.92;100.00
53960;BME280;39866;48.638;-2.020;2024-02-04T05:04:54;103066.94;;;14.70;100.00
53960;BME280;39866;48.638;-2.020;2024-02-04T05:07:19;103075.88;;;14.70;100.00
53960;BME280;39866;48.638;-2.020;2024-02-04T05:09:46;103070.47;;;14.75;100.00
53960;BME280;39866;48.638;-2.020;2024-02-04T05:12:12;103074.97;;;14.70;100.00
53960;BME280;39866;48.638;-2.020;2024-02-04T05:14:37;103085.59;;;14.80;100.00
53960;BME280;39866;48.638;-2.020;2024-02-04T05:17:04;103070.59;;;14.59;100.00
53960;BME280;39866;48.638;-2.020;2024-02-04T05:19:30;103069.59;;;14.71;100.00
53960;BME280;39866;48.638;-2.020;2024-02-04T05:21:55;103066.19;;;14.48;100.00
53960;BME280;39866;48.638;-2.020;2024-02-04T05:24:20;103059.88;;;14.59;100.00
53960;BME280;39866;48.638;-2.020;2024-02-04T05:26:46;103060.72;;;14.66;100.00
53960;BME280;39866;48.638;-2.020;2024-02-04T05:29:11;103077.63;;;14.71;100.00
53960;BME280;39866;48.638;-2.020;2024-02-04T05:31:43;103069.38;;;14.93;100.00
53960;BME280;39866;48.638;-2.020;2024-02-04T05:34:09;103073.09;;;14.79;100.00
53960;BME280;39866;48.638;-2.020;2024-02-04T05:36:35;103064.03;;;14.90;100.00
53960;BME280;39866;48.638;-2.020;2024-02-04T05:39:13;103066.72;;;14.91;100.00
53960;BME280;39866;48.638;-2.020;2024-02-04T05:41:40;103073.84;;;14.94;100.00
53960;BME280;39866;48.638;-2.020;2024-02-04T05:44:05;103064.91;;;14.95;100.00
53960;BME280;39866;48.638;-2.020;2024-02-04T05:46:31;103065.84;;;14.91;100.00
53960;BME280;39866;48.638;-2.020;2024-02-04T05:48:57;103062.84;;;15.20;100.00
53960;BME280;39866;48.638;-2.020;2024-02-04T05:51:22;103062.97;;;15.09;100.00
53960;BME280;39866;48.638;-2.020;2024-02-04T05:53:48;103065.84;;;14.91;100.00
53960;BME280;39866;48.638;-2.020;2024-02-04T05:56:13;103065.81;;;14.92;100.00
53960;BME280;39866;48.638;-2.020;2024-02-04T05:58:39;103071.94;;;15.06;100.00
53960;BME280;39866;48.638;-2.020;2024-02-04T06:01:04;103060.34;;;15.03;100.00
53960;BME280;39866;48.638;-2.020;2024-02-04T06:03:30;103059.41;;;15.07;100.00
53960;BME280;39866;48.638;-2.020;2024-02-04T06:05:55;103055.00;;;15.03;100.00
53960;BME280;39866;48.638;-2.020;2024-02-04T06:08:20;103056.69;;;15.10;100.00
53960;BME280;39866;48.638;-2.020;2024-02-04T06:10:46;103055.00;;;15.03;100.00
53960;BME280;39866;48.638;-2.020;2024-02-04T06:13:11;103054.19;;;14.95;100.00
53960;BME280;39866;48.638;-2.020;2024-02-04T06:15:36;103051.50;;;14.93;100.00
53960;BME280;39866;48.638;-2.020;2024-02-04T06:18:02;103048.03;;;14.83;100.00
53960;BME280;39866;48.638;-2.020;2024-02-04T06:20:27;103052.56;;;14.75;100.00
53960;BME280;39866;48.638;-2.020;2024-02-04T06:22:53;103044.50;;;14.78;100.00
53960;BME280;39866;48.638;-2.020;2024-02-04T06:25:18;103045.47;;;14.71;100.00
53960;BME280;39866;48.638;-2.020;2024-02-04T06:27:43;103044.50;;;14.78;100.00
53960;BME280;39866;48.638;-2.020;2024-02-04T06:30:09;103041.78;;;14.83;100.00
53960;BME280;39866;48.638;-2.020;2024-02-04T06:32:34;103046.22;;;14.84;100.00
53960;BME280;39866;48.638;-2.020;2024-02-04T06:35:00;103042.69;;;14.82;100.00
53960;BME280;39866;48.638;-2.020;2024-02-04T06:37:25;103049.78;;;14.88;100.00
53960;BME280;39866;48.638;-2.020;2024-02-04T06:39:52;103045.38;;;14.82;100.00
53960;BME280;39866;48.638;-2.020;2024-02-04T06:42:17;103050.69;;;14.86;100.00
53960;BME280;39866;48.638;-2.020;2024-02-04T06:44:44;103047.88;;;14.97;100.00
53960;BME280;39866;48.638;-2.020;2024-02-04T06:47:10;103044.31;;;14.98;100.00
53960;BME280;39866;48.638;-2.020;2024-02-04T06:49:37;103040.69;;;15.01;100.00
53960;BME280;39866;48.638;-2.020;2024-02-04T06:52:03;103038.09;;;14.95;100.00
53960;BME280;39866;48.638;-2.020;2024-02-04T06:54:28;103040.72;;;14.98;100.00
53960;BME280;39866;48.638;-2.020;2024-02-04T06:56:54;103036.16;;;15.07;100.00
53960;BME280;39866;48.638;-2.020;2024-02-04T06:59:19;103034.41;;;15.03;100.00
53960;BME280;39866;48.638;-2.020;2024-02-04T07:01:44;103040.69;;;15.01;100.00
53960;BME280;39866;48.638;-2.020;2024-02-04T07:04:10;103042.53;;;14.96;100.00
53960;BME280;39866;48.638;-2.020;2024-02-04T07:06:35;103048.75;;;14.98;100.00
53960;BME280;39866;48.638;-2.020;2024-02-04T07:09:00;103052.13;;;15.18;100.00
53960;BME280;39866;48.638;-2.020;2024-02-04T07:11:26;103046.00;;;15.05;100.00
53960;BME280;39866;48.638;-2.020;2024-02-04T07:13:51;103049.56;;;15.06;100.00
53960;BME280;39866;48.638;-2.020;2024-02-04T07:16:23;103040.94;;;14.76;100.00
53960;BME280;39866;48.638;-2.020;2024-02-04T07:18:49;103054.22;;;14.89;100.00
53960;BME280;39866;48.638;-2.020;2024-02-04T07:21:14;103047.91;;;14.96;100.00
53960;BME280;39866;48.638;-2.020;2024-02-04T07:23:39;103053.25;;;14.99;100.00
53960;BME280;39866;48.638;-2.020;2024-02-04T07:26:05;103051.53;;;14.89;100.00
53960;BME280;39866;48.638;-2.020;2024-02-04T07:28:30;103051.53;;;14.92;100.00
53960;BME280;39866;48.638;-2.020;2024-02-04T07:30:55;103064.94;;;14.92;100.00
53960;BME280;39866;48.638;-2.020;2024-02-04T07:33:20;103053.16;;;15.06;100.00
53960;BME280;39866;48.638;-2.020;2024-02-04T07:35:46;103052.47;;;14.86;100.00
53960;BME280;39866;48.638;-2.020;2024-02-04T07:38:11;103050.66;;;14.88;100.00
53960;BME280;39866;48.638;-2.020;2024-02-04T07:40:36;103053.28;;;14.96;100.00
53960;BME280;39866;48.638;-2.020;2024-02-04T07:43:02;103048.81;;;14.95;100.00
53960;BME280;39866;48.638;-2.020;2024-02-04T07:45:27;103045.25;;;14.93;100.00
53960;BME280;39866;48.638;-2.020;2024-02-04T07:47:52;103054.13;;;14.98;100.00
53960;BME280;39866;48.638;-2.020;2024-02-04T07:50:18;103053.22;;;15.00;100.00
53960;BME280;39866;48.638;-2.020;2024-02-04T07:52:43;103057.81;;;14.88;100.00
53960;BME280;39866;48.638;-2.020;2024-02-04T07:55:09;103061.34;;;14.90;100.00
53960;BME280;39866;48.638;-2.020;2024-02-04T07:57:35;103065.78;;;14.94;100.00
53960;BME280;39866;48.638;-2.020;2024-02-04T08:00:00;103059.56;;;14.92;100.00
53960;BME280;39866;48.638;-2.020;2024-02-04T08:02:28;103062.28;;;14.87;100.00
53960;BME280;39866;48.638;-2.020;2024-02-04T08:04:54;103059.63;;;14.87;100.00
53960;BME280;39866;48.638;-2.020;2024-02-04T08:07:19;103057.78;;;14.89;100.00
53960;BME280;39866;48.638;-2.020;2024-02-04T08:09:45;103054.19;;;14.95;100.00
53960;BME280;39866;48.638;-2.020;2024-02-04T08:12:11;103054.16;;;14.96;100.00
53960;BME280;39866;48.638;-2.020;2024-02-04T08:14:37;103048.72;;;15.01;100.00
53960;BME280;39866;48.638;-2.020;2024-02-04T08:17:02;103056.88;;;14.92;100.00
53960;BME280;39866;48.638;-2.020;2024-02-04T08:19:27;103053.16;;;15.06;100.00
53960;BME280;39866;48.638;-2.020;2024-02-04T08:21:53;103050.72;;;14.80;100.00
53960;BME280;39866;48.638;-2.020;2024-02-04T08:24:18;103059.66;;;14.81;100.00
53960;BME280;39866;48.638;-2.020;2024-02-04T08:26:44;103060.44;;;14.95;100.00
53960;BME280;39866;48.638;-2.020;2024-02-04T08:29:10;103058.50;;;15.08;100.00
53960;BME280;39866;48.638;-2.020;2024-02-04T08:31:36;103055.78;;;15.11;100.00
53960;BME280;39866;48.638;-2.020;2024-02-04T08:34:02;103056.72;;;15.05;100.00
53960;BME280;39866;48.638;-2.020;2024-02-04T08:36:29;103053.09;;;15.13;100.00
53960;BME280;39866;48.638;-2.020;2024-02-04T08:38:56;103052.16;;;15.17;100.00
53960;BME280;39866;48.638;-2.020;2024-02-04T08:41:21;103053.84;;;15.27;100.00
53960;BME280;39866;48.638;-2.020;2024-02-04T08:43:46;103056.53;;;15.22;100.00
53960;BME280;39866;48.638;-2.020;2024-02-04T08:46:12;103052.94;;;15.25;100.00
53960;BME280;39866;48.638;-2.020;2024-02-04T08:48:38;103054.78;;;15.21;100.00
53960;BME280;39866;48.638;-2.020;2024-02-04T08:51:03;103045.81;;;15.22;100.00
53960;BME280;39866;48.638;-2.020;2024-02-04T08:53:29;103046.75;;;15.20;100.00
53960;BME280;39866;48.638;-2.020;2024-02-04T08:55:54;103058.50;;;15.08;100.00
53960;BME280;39866;48.638;-2.020;2024-02-04T08:58:19;103052.94;;;15.25;100.00
53960;BME280;39866;48.638;-2.020;2024-02-04T09:00:45;103058.47;;;15.11;100.00
53960;BME280;39866;48.638;-2.020;2024-02-04T09:03:10;103052.19;;;15.15;100.00
53960;BME280;39866;48.638;-2.020;2024-02-04T09:05:35;103062.00;;;15.16;100.00
53960;BME280;39866;48.638;-2.020;2024-02-04T09:08:01;103062.84;;;15.18;100.00
53960;BME280;39866;48.638;-2.020;2024-02-04T09:10:27;103061.09;;;15.16;100.00
53960;BME280;39866;48.638;-2.020;2024-02-04T09:12:52;103060.28;;;15.10;100.00
53960;BME280;39866;48.638;-2.020;2024-02-04T09:15:17;103058.41;;;15.17;100.00
53960;BME280;39866;48.638;-2.020;2024-02-04T09:17:43;103054.84;;;15.14;100.00
53960;BME280;39866;48.638;-2.020;2024-02-04T09:20:08;103062.75;;;15.29;100.00
53960;BME280;39866;48.638;-2.020;2024-02-04T09:22:34;103065.47;;;15.24;100.00
53960;BME280;39866;48.638;-2.020;2024-02-04T09:24:59;103057.34;;;15.32;100.00
53960;BME280;39866;48.638;-2.020;2024-02-04T09:27:25;103057.47;;;15.23;100.00
53960;BME280;39866;48.638;-2.020;2024-02-04T09:29:50;103059.22;;;15.22;100.00
53960;BME280;39866;48.638;-2.020;2024-02-04T09:32:16;103052.69;;;15.46;100.00
53960;BME280;39866;48.638;-2.020;2024-02-04T09:34:41;103050.84;;;15.50;100.00
53960;BME280;39866;48.638;-2.020;2024-02-04T09:37:07;103050.09;;;15.40;100.00
53960;BME280;39866;48.638;-2.020;2024-02-04T09:39:32;103049.13;;;15.46;100.00
53960;BME280;39866;48.638;-2.020;2024-02-04T09:41:57;103043.91;;;15.35;100.00
53960;BME280;39866;48.638;-2.020;2024-02-04T09:44:24;103043.84;;;15.40;100.00
53960;BME280;39866;48.638;-2.020;2024-02-04T09:46:50;103043.69;;;15.52;100.00
53960;BME280;39866;48.638;-2.020;2024-02-04T09:49:16;103040.94;;;15.55;100.00
53960;BME280;39866;48.638;-2.020;2024-02-04T09:51:41;103041.84;;;15.54;100.00
53960;BME280;39866;48.638;-2.020;2024-02-04T09:54:10;103041.16;;;15.40;100.00
53960;BME280;39866;48.638;-2.020;2024-02-04T09:56:37;103043.84;;;15.40;100.00
53960;BME280;39866;48.638;-2.020;2024-02-04T09:59:04;103041.88;;;15.52;100.00
53960;BME280;39866;48.638;-2.020;2024-02-04T10:01:29;103034.69;;;15.56;100.00
53960;BME280;39866;48.638;-2.020;2024-02-04T10:03:56;103055.19;;;15.65;100.00
53960;BME280;39866;48.638;-2.020;2024-02-04T10:06:21;103046.38;;;15.50;100.00
53960;BME280;39866;48.638;-2.020;2024-02-04T10:08:47;103048.09;;;15.56;100.00
53960;BME280;39866;48.638;-2.020;2024-02-04T10:11:13;103046.06;;;15.75;100.00
53960;BME280;39866;48.638;-2.020;2024-02-04T10:13:43;103053.28;;;15.73;100.00
53960;BME280;39866;48.638;-2.020;2024-02-04T10:16:09;103054.22;;;15.67;100.00
53960;BME280;39866;48.638;-2.020;2024-02-04T10:18:34;103052.38;;;15.74;100.00
53960;BME280;39866;48.638;-2.020;2024-02-04T10:20:59;103055.91;;;15.77;100.00
53960;BME280;39866;48.638;-2.020;2024-02-04T10:23:25;103058.50;;;15.83;100.00
53960;BME280;39866;48.638;-2.020;2024-02-04T10:25:58;103056.81;;;15.75;100.00
53960;BME280;39866;48.638;-2.020;2024-02-04T10:28:24;103055.94;;;15.74;100.00
53960;BME280;39866;48.638;-2.020;2024-02-04T10:30:49;103061.31;;;15.76;100.00
53960;BME280;39866;48.638;-2.020;2024-02-04T10:33:15;103054.06;;;15.79;100.00
53960;BME280;39866;48.638;-2.020;2024-02-04T10:35:42;103058.38;;;15.93;100.00
53960;BME280;39866;48.638;-2.020;2024-02-04T10:38:08;103055.63;;;15.97;100.00
53960;BME280;39866;48.638;-2.020;2024-02-04T10:40:33;103064.59;;;15.96;100.00
53960;BME280;39866;48.638;-2.020;2024-02-04T10:43:03;103067.16;;;16.05;100.00
53960;BME280;39866;48.638;-2.020;2024-02-04T10:45:32;103060.34;;;15.80;100.00
53960;BME280;39866;48.638;-2.020;2024-02-04T10:48:01;103070.81;;;15.98;100.00
53960;BME280;39866;48.638;-2.020;2024-02-04T10:50:27;103064.78;;;15.82;100.00
53960;BME280;39866;48.638;-2.020;2024-02-04T10:52:58;103069.03;;;15.99;100.00
53960;BME280;39866;48.638;-2.020;2024-02-04T10:55:28;103059.28;;;15.93;100.00
53960;BME280;39866;48.638;-2.020;2024-02-04T10:57:56;103054.81;;;15.92;100.00
53960;BME280;39866;48.638;-2.020;2024-02-04T11:00:21;103057.34;;;16.01;100.00
53960;BME280;39866;48.638;-2.020;2024-02-04T11:02:48;103055.63;;;15.96;100.00
53960;BME280;39866;48.638;-2.020;2024-02-04T11:05:15;103052.84;;;16.03;100.00
53960;BME280;39866;48.638;-2.020;2024-02-04T11:07:42;103059.13;;;16.02;100.00
53960;BME280;39866;48.638;-2.020;2024-02-04T11:10:10;103060.81;;;16.08;100.00
53960;BME280;39866;48.638;-2.020;2024-02-04T11:12:37;103061.81;;;16.02;100.00
53960;BME280;39866;48.638;-2.020;2024-02-04T11:15:05;103062.63;;;16.09;100.00
53960;BME280;39866;48.638;-2.020;2024-02-04T11:23:32;103062.47;;;16.18;100.00
53960;BME280;39866;48.638;-2.020;2024-02-04T11:28:10;103061.22;;;16.41;100.00
53960;BME280;39866;48.638;-2.020;2024-02-04T11:30:36;103056.19;;;16.21;100.00
53960;BME280;39866;48.638;-2.020;2024-02-04T11:33:06;103054.44;;;16.15;100.00
53960;BME280;39866;48.638;-2.020;2024-02-04T11:35:34;103056.41;;;16.05;100.00
53960;BME280;39866;48.638;-2.020;2024-02-04T11:38:02;103043.53;;;16.26;100.00
53960;BME280;39866;48.638;-2.020;2024-02-04T11:40:34;103054.09;;;16.37;100.00
53960;BME280;39866;48.638;-2.020;2024-02-04T11:43:12;103046.19;;;16.29;100.00
53960;BME280;39866;48.638;-2.020;2024-02-04T11:45:42;103043.44;;;16.32;100.00
53960;BME280;39866;48.638;-2.020;2024-02-04T11:48:11;103047.69;;;16.47;100.00
53960;BME280;39866;48.638;-2.020;2024-02-04T11:50:37;103045.97;;;16.43;100.00
53960;BME280;39866;48.638;-2.020;2024-02-04T11:53:10;103039.13;;;16.22;100.00
53960;BME280;39866;48.638;-2.020;2024-02-04T11:55:38;103035.28;;;16.37;100.00
53960;BME280;39866;48.638;-2.020;2024-02-04T11:58:05;103032.56;;;16.41;100.00
53960;BME280;39866;48.638;-2.020;2024-02-04T12:00:34;103039.63;;;16.47;100.00
53960;BME280;39866;48.638;-2.020;2024-02-04T12:03:03;103031.50;;;16.50;100.00
53960;BME280;39866;48.638;-2.020;2024-02-04T12:05:31;103033.22;;;16.54;100.00
53960;BME280;39866;48.638;-2.020;2024-02-04T12:07:57;103037.72;;;16.53;100.00
53960;BME280;39866;48.638;-2.020;2024-02-04T12:10:23;103033.16;;;16.58;100.00
53960;BME280;39866;48.638;-2.020;2024-02-04T12:12:49;103034.19;;;16.48;100.00
53960;BME280;39866;48.638;-2.020;2024-02-04T12:15:15;103033.34;;;16.46;100.00
53960;BME280;39866;48.638;-2.020;2024-02-04T12:17:41;103036.22;;;16.35;100.00
53960;BME280;39866;48.638;-2.020;2024-02-04T12:20:07;103025.34;;;16.43;100.00
53960;BME280;39866;48.638;-2.020;2024-02-04T12:22:33;103033.28;;;16.51;100.00
53960;BME280;39866;48.638;-2.020;2024-02-04T12:24:59;103022.03;;;16.26;100.00
53960;BME280;39866;48.638;-2.020;2024-02-04T12:27:26;103029.59;;;15.99;100.00
53960;BME280;39866;48.638;-2.020;2024-02-04T12:29:52;103034.91;;;16.04;100.00
53960;BME280;39866;48.638;-2.020;2024-02-04T12:32:17;103030.31;;;16.12;100.00
53960;BME280;39866;48.638;-2.020;2024-02-04T12:34:48;103021.25;;;16.19;100.00
53960;BME280;39866;48.638;-2.020;2024-02-04T12:37:13;103027.41;;;16.26;100.00
53960;BME280;39866;48.638;-2.020;2024-02-04T12:39:39;103019.59;;;16.10;100.00